The Terrace, New York
Current Conditions -  °F | °C
As of 3:58 PM on Monday 22 Dec 2014 (Local Time) from KLGA Reporting Station
Drizzle Drizzle  
Wind Chill: 37°   Ceiling: 1300
Heat Index: 43°   Visibility: 4mi
Dew Point: 37°   Wind: 9mph
Humidity: 81%   Direction: 60°ENE
Pressure: 30.24"   Gusts: NA
Location:  40.8387°N, 73.6912°W
Report Text: KLGA 222058Z 06008KT 4SM -DZ BR FEW009 OVC013 06/03 A3024 RMK AO2 P0000
Loading
Personal Weather Stations






























Interactive Weather Map New forecast layout! Learn more

10-Day Weather Forecast

Advertisements
Track Severe Weather on mobile